sensor_id;sensor_type;location;lat;lon;timestamp;P1;durP1;ratioP1;P2;durP2;ratioP2
10537;SDS011;5317;49.048;8.468;2023-08-08T00:01:18;2.40;;;1.87;;
10537;SDS011;5317;49.048;8.468;2023-08-08T00:03:45;2.30;;;1.77;;
10537;SDS011;5317;49.048;8.468;2023-08-08T00:06:12;1.80;;;1.50;;
10537;SDS011;5317;49.048;8.468;2023-08-08T00:08:39;1.97;;;1.70;;
10537;SDS011;5317;49.048;8.468;2023-08-08T00:11:06;2.17;;;1.70;;
10537;SDS011;5317;49.048;8.468;2023-08-08T00:13:33;1.60;;;1.50;;
10537;SDS011;5317;49.048;8.468;2023-08-08T00:16:01;3.03;;;1.47;;
10537;SDS011;5317;49.048;8.468;2023-08-08T00:18:28;1.67;;;1.40;;
10537;SDS011;5317;49.048;8.468;2023-08-08T00:20:55;1.70;;;1.60;;
10537;SDS011;5317;49.048;8.468;2023-08-08T00:23:22;1.47;;;1.37;;
10537;SDS011;5317;49.048;8.468;2023-08-08T00:25:49;3.53;;;1.53;;
10537;SDS011;5317;49.048;8.468;2023-08-08T00:28:16;1.47;;;1.37;;
10537;SDS011;5317;49.048;8.468;2023-08-08T00:30:44;2.13;;;1.77;;
10537;SDS011;5317;49.048;8.468;2023-08-08T00:33:12;2.73;;;1.70;;
10537;SDS011;5317;49.048;8.468;2023-08-08T00:35:39;2.70;;;1.60;;
10537;SDS011;5317;49.048;8.468;2023-08-08T00:38:06;3.03;;;1.80;;
10537;SDS011;5317;49.048;8.468;2023-08-08T00:40:33;2.43;;;1.70;;
10537;SDS011;5317;49.048;8.468;2023-08-08T00:42:59;2.57;;;1.60;;
10537;SDS011;5317;49.048;8.468;2023-08-08T00:45:26;2.40;;;1.50;;
10537;SDS011;5317;49.048;8.468;2023-08-08T00:47:53;3.07;;;1.70;;
10537;SDS011;5317;49.048;8.468;2023-08-08T00:50:22;2.93;;;1.73;;
10537;SDS011;5317;49.048;8.468;2023-08-08T00:52:49;2.57;;;1.70;;
10537;SDS011;5317;49.048;8.468;2023-08-08T00:55:16;2.97;;;1.70;;
10537;SDS011;5317;49.048;8.468;2023-08-08T00:57:45;2.53;;;1.80;;
10537;SDS011;5317;49.048;8.468;2023-08-08T01:00:13;1.83;;;1.60;;
10537;SDS011;5317;49.048;8.468;2023-08-08T01:02:40;1.73;;;1.63;;
10537;SDS011;5317;49.048;8.468;2023-08-08T01:05:06;1.97;;;1.67;;
10537;SDS011;5317;49.048;8.468;2023-08-08T01:07:38;1.60;;;1.50;;
10537;SDS011;5317;49.048;8.468;2023-08-08T01:10:14;2.17;;;1.60;;
10537;SDS011;5317;49.048;8.468;2023-08-08T01:12:44;1.67;;;1.53;;
10537;SDS011;5317;49.048;8.468;2023-08-08T01:15:13;2.20;;;1.60;;
10537;SDS011;5317;49.048;8.468;2023-08-08T01:17:40;3.97;;;1.60;;
10537;SDS011;5317;49.048;8.468;2023-08-08T01:20:08;2.10;;;1.90;;
10537;SDS011;5317;49.048;8.468;2023-08-08T01:22:50;2.23;;;1.83;;
10537;SDS011;5317;49.048;8.468;2023-08-08T01:25:26;1.43;;;1.33;;
10537;SDS011;5317;49.048;8.468;2023-08-08T01:27:52;2.60;;;1.80;;
10537;SDS011;5317;49.048;8.468;2023-08-08T01:30:19;2.10;;;1.60;;
10537;SDS011;5317;49.048;8.468;2023-08-08T01:32:46;3.63;;;1.60;;
10537;SDS011;5317;49.048;8.468;2023-08-08T01:35:13;2.57;;;1.77;;
10537;SDS011;5317;49.048;8.468;2023-08-08T01:37:41;1.50;;;1.40;;
10537;SDS011;5317;49.048;8.468;2023-08-08T01:40:12;2.00;;;1.67;;
10537;SDS011;5317;49.048;8.468;2023-08-08T01:42:44;2.40;;;1.70;;
10537;SDS011;5317;49.048;8.468;2023-08-08T01:45:13;1.97;;;1.77;;
10537;SDS011;5317;49.048;8.468;2023-08-08T01:47:41;2.47;;;1.63;;
10537;SDS011;5317;49.048;8.468;2023-08-08T01:50:09;1.60;;;1.50;;
10537;SDS011;5317;49.048;8.468;2023-08-08T01:52:36;1.63;;;1.53;;
10537;SDS011;5317;49.048;8.468;2023-08-08T01:55:03;2.53;;;1.53;;
10537;SDS011;5317;49.048;8.468;2023-08-08T01:57:30;2.20;;;1.73;;
10537;SDS011;5317;49.048;8.468;2023-08-08T01:59:58;2.10;;;1.90;;
10537;SDS011;5317;49.048;8.468;2023-08-08T02:02:25;3.53;;;1.83;;
10537;SDS011;5317;49.048;8.468;2023-08-08T02:04:55;3.60;;;1.57;;
10537;SDS011;5317;49.048;8.468;2023-08-08T02:07:24;4.97;;;2.23;;
10537;SDS011;5317;49.048;8.468;2023-08-08T02:09:51;2.20;;;1.90;;
10537;SDS011;5317;49.048;8.468;2023-08-08T02:12:18;2.60;;;1.50;;
10537;SDS011;5317;49.048;8.468;2023-08-08T02:14:45;6.40;;;1.77;;
10537;SDS011;5317;49.048;8.468;2023-08-08T02:17:16;2.53;;;1.50;;
10537;SDS011;5317;49.048;8.468;2023-08-08T02:19:42;1.93;;;1.43;;
10537;SDS011;5317;49.048;8.468;2023-08-08T02:22:09;1.67;;;1.57;;
10537;SDS011;5317;49.048;8.468;2023-08-08T02:24:36;1.90;;;1.70;;
10537;SDS011;5317;49.048;8.468;2023-08-08T02:27:03;4.30;;;1.73;;
10537;SDS011;5317;49.048;8.468;2023-08-08T02:29:30;2.30;;;1.47;;
10537;SDS011;5317;49.048;8.468;2023-08-08T02:31:57;2.20;;;1.80;;
10537;SDS011;5317;49.048;8.468;2023-08-08T02:34:25;2.00;;;1.60;;
10537;SDS011;5317;49.048;8.468;2023-08-08T02:36:52;2.90;;;2.00;;
10537;SDS011;5317;49.048;8.468;2023-08-08T02:39:19;2.77;;;1.50;;
10537;SDS011;5317;49.048;8.468;2023-08-08T02:41:46;4.00;;;1.73;;
10537;SDS011;5317;49.048;8.468;2023-08-08T02:44:14;2.00;;;1.53;;
10537;SDS011;5317;49.048;8.468;2023-08-08T02:46:41;3.47;;;2.00;;
10537;SDS011;5317;49.048;8.468;2023-08-08T02:49:08;1.87;;;1.57;;
10537;SDS011;5317;49.048;8.468;2023-08-08T02:51:36;2.80;;;1.90;;
10537;SDS011;5317;49.048;8.468;2023-08-08T02:54:03;2.90;;;1.83;;
10537;SDS011;5317;49.048;8.468;2023-08-08T02:56:32;2.33;;;1.83;;
10537;SDS011;5317;49.048;8.468;2023-08-08T02:58:59;1.80;;;1.60;;
10537;SDS011;5317;49.048;8.468;2023-08-08T03:01:26;2.60;;;1.77;;
10537;SDS011;5317;49.048;8.468;2023-08-08T03:03:53;2.00;;;1.67;;
10537;SDS011;5317;49.048;8.468;2023-08-08T03:06:20;2.63;;;1.87;;
10537;SDS011;5317;49.048;8.468;2023-08-08T03:08:48;2.90;;;2.07;;
10537;SDS011;5317;49.048;8.468;2023-08-08T03:11:15;4.50;;;1.67;;
10537;SDS011;5317;49.048;8.468;2023-08-08T03:13:41;2.23;;;1.80;;
10537;SDS011;5317;49.048;8.468;2023-08-08T03:16:08;1.60;;;1.50;;
10537;SDS011;5317;49.048;8.468;2023-08-08T03:18:38;2.83;;;1.60;;
10537;SDS011;5317;49.048;8.468;2023-08-08T03:21:05;2.17;;;1.67;;
10537;SDS011;5317;49.048;8.468;2023-08-08T03:23:31;2.03;;;1.50;;
10537;SDS011;5317;49.048;8.468;2023-08-08T03:25:59;3.63;;;1.90;;
10537;SDS011;5317;49.048;8.468;2023-08-08T03:28:26;2.73;;;1.87;;
10537;SDS011;5317;49.048;8.468;2023-08-08T03:30:56;2.00;;;1.73;;
10537;SDS011;5317;49.048;8.468;2023-08-08T03:33:27;3.17;;;1.97;;
10537;SDS011;5317;49.048;8.468;2023-08-08T03:35:56;1.60;;;1.50;;
10537;SDS011;5317;49.048;8.468;2023-08-08T03:38:26;2.13;;;1.57;;
10537;SDS011;5317;49.048;8.468;2023-08-08T03:40:53;2.03;;;1.40;;
10537;SDS011;5317;49.048;8.468;2023-08-08T03:43:23;2.70;;;1.77;;
10537;SDS011;5317;49.048;8.468;2023-08-08T03:45:50;1.90;;;1.77;;
10537;SDS011;5317;49.048;8.468;2023-08-08T03:48:16;2.73;;;1.70;;
10537;SDS011;5317;49.048;8.468;2023-08-08T03:50:43;3.67;;;1.57;;
10537;SDS011;5317;49.048;8.468;2023-08-08T03:53:11;1.90;;;1.70;;
10537;SDS011;5317;49.048;8.468;2023-08-08T03:55:38;2.47;;;1.90;;
10537;SDS011;5317;49.048;8.468;2023-08-08T03:58:05;1.80;;;1.60;;
10537;SDS011;5317;49.048;8.468;2023-08-08T04:00:33;2.17;;;1.90;;
10537;SDS011;5317;49.048;8.468;2023-08-08T04:03:00;2.30;;;1.60;;
10537;SDS011;5317;49.048;8.468;2023-08-08T04:05:27;2.07;;;1.50;;
10537;SDS011;5317;49.048;8.468;2023-08-08T04:07:56;2.20;;;1.73;;
10537;SDS011;5317;49.048;8.468;2023-08-08T04:10:26;1.93;;;1.73;;
10537;SDS011;5317;49.048;8.468;2023-08-08T04:12:53;2.40;;;1.60;;
10537;SDS011;5317;49.048;8.468;2023-08-08T04:15:19;2.77;;;1.63;;
10537;SDS011;5317;49.048;8.468;2023-08-08T04:17:51;1.80;;;1.70;;
10537;SDS011;5317;49.048;8.468;2023-08-08T04:20:18;2.10;;;1.90;;
10537;SDS011;5317;49.048;8.468;2023-08-08T04:22:47;1.90;;;1.67;;
10537;SDS011;5317;49.048;8.468;2023-08-08T04:25:14;3.00;;;1.80;;
10537;SDS011;5317;49.048;8.468;2023-08-08T04:27:41;4.23;;;1.70;;
10537;SDS011;5317;49.048;8.468;2023-08-08T04:30:11;2.77;;;1.60;;
10537;SDS011;5317;49.048;8.468;2023-08-08T04:32:38;2.00;;;1.80;;
10537;SDS011;5317;49.048;8.468;2023-08-08T04:35:09;1.80;;;1.60;;
10537;SDS011;5317;49.048;8.468;2023-08-08T04:37:36;2.13;;;1.90;;
10537;SDS011;5317;49.048;8.468;2023-08-08T04:40:02;2.47;;;1.60;;
10537;SDS011;5317;49.048;8.468;2023-08-08T04:42:30;2.03;;;1.50;;
10537;SDS011;5317;49.048;8.468;2023-08-08T04:44:56;1.80;;;1.50;;
10537;SDS011;5317;49.048;8.468;2023-08-08T04:47:23;2.37;;;1.80;;
10537;SDS011;5317;49.048;8.468;2023-08-08T04:49:50;1.80;;;1.70;;
10537;SDS011;5317;49.048;8.468;2023-08-08T04:52:18;3.10;;;2.00;;
10537;SDS011;5317;49.048;8.468;2023-08-08T04:54:45;3.30;;;1.93;;
10537;SDS011;5317;49.048;8.468;2023-08-08T04:57:14;1.97;;;1.87;;
10537;SDS011;5317;49.048;8.468;2023-08-08T04:59:42;3.77;;;1.80;;
10537;SDS011;5317;49.048;8.468;2023-08-08T05:02:09;3.03;;;1.93;;
10537;SDS011;5317;49.048;8.468;2023-08-08T05:04:36;3.23;;;2.10;;
10537;SDS011;5317;49.048;8.468;2023-08-08T05:07:03;4.23;;;1.73;;
10537;SDS011;5317;49.048;8.468;2023-08-08T05:09:32;1.97;;;1.77;;
10537;SDS011;5317;49.048;8.468;2023-08-08T05:11:59;5.17;;;1.73;;
10537;SDS011;5317;49.048;8.468;2023-08-08T05:14:26;2.97;;;1.87;;
10537;SDS011;5317;49.048;8.468;2023-08-08T05:16:52;2.50;;;2.00;;
10537;SDS011;5317;49.048;8.468;2023-08-08T05:19:19;1.93;;;1.73;;
10537;SDS011;5317;49.048;8.468;2023-08-08T05:21:46;2.37;;;1.63;;
10537;SDS011;5317;49.048;8.468;2023-08-08T05:24:13;2.20;;;1.70;;
10537;SDS011;5317;49.048;8.468;2023-08-08T05:26:41;2.23;;;1.70;;
10537;SDS011;5317;49.048;8.468;2023-08-08T05:29:13;2.77;;;1.70;;
10537;SDS011;5317;49.048;8.468;2023-08-08T05:31:43;3.40;;;1.93;;
10537;SDS011;5317;49.048;8.468;2023-08-08T05:34:12;2.60;;;2.10;;
10537;SDS011;5317;49.048;8.468;2023-08-08T05:36:42;2.13;;;1.87;;
10537;SDS011;5317;49.048;8.468;2023-08-08T05:39:12;3.33;;;1.53;;
10537;SDS011;5317;49.048;8.468;2023-08-08T05:41:38;2.93;;;2.10;;
10537;SDS011;5317;49.048;8.468;2023-08-08T05:44:09;3.13;;;2.23;;
10537;SDS011;5317;49.048;8.468;2023-08-08T05:46:38;3.87;;;1.90;;
10537;SDS011;5317;49.048;8.468;2023-08-08T05:49:07;4.70;;;1.80;;
10537;SDS011;5317;49.048;8.468;2023-08-08T05:51:37;1.73;;;1.63;;
10537;SDS011;5317;49.048;8.468;2023-08-08T05:54:07;2.00;;;1.80;;
10537;SDS011;5317;49.048;8.468;2023-08-08T05:56:37;2.00;;;1.80;;
10537;SDS011;5317;49.048;8.468;2023-08-08T05:59:08;2.40;;;1.57;;
10537;SDS011;5317;49.048;8.468;2023-08-08T06:01:38;2.47;;;1.90;;
10537;SDS011;5317;49.048;8.468;2023-08-08T06:04:09;2.63;;;1.93;;
10537;SDS011;5317;49.048;8.468;2023-08-08T06:06:38;1.90;;;1.70;;
10537;SDS011;5317;49.048;8.468;2023-08-08T06:09:09;3.17;;;1.83;;
10537;SDS011;5317;49.048;8.468;2023-08-08T06:11:37;3.27;;;1.80;;
10537;SDS011;5317;49.048;8.468;2023-08-08T06:14:04;2.40;;;1.37;;
10537;SDS011;5317;49.048;8.468;2023-08-08T06:16:36;1.93;;;1.73;;
10537;SDS011;5317;49.048;8.468;2023-08-08T06:19:02;2.00;;;1.47;;
10537;SDS011;5317;49.048;8.468;2023-08-08T06:21:32;1.97;;;1.70;;
10537;SDS011;5317;49.048;8.468;2023-08-08T06:24:02;2.80;;;1.93;;
10537;SDS011;5317;49.048;8.468;2023-08-08T06:26:29;4.17;;;1.93;;
10537;SDS011;5317;49.048;8.468;2023-08-08T06:28:59;1.87;;;1.63;;
10537;SDS011;5317;49.048;8.468;2023-08-08T06:31:26;1.73;;;1.63;;
10537;SDS011;5317;49.048;8.468;2023-08-08T06:33:54;2.40;;;2.13;;
10537;SDS011;5317;49.048;8.468;2023-08-08T06:36:21;3.10;;;1.77;;
10537;SDS011;5317;49.048;8.468;2023-08-08T06:38:48;1.80;;;1.63;;
10537;SDS011;5317;49.048;8.468;2023-08-08T06:41:14;2.63;;;1.87;;
10537;SDS011;5317;49.048;8.468;2023-08-08T06:43:41;2.00;;;1.80;;
10537;SDS011;5317;49.048;8.468;2023-08-08T06:46:08;1.87;;;1.53;;
10537;SDS011;5317;49.048;8.468;2023-08-08T06:48:35;3.23;;;1.80;;
10537;SDS011;5317;49.048;8.468;2023-08-08T06:51:03;2.73;;;1.60;;
10537;SDS011;5317;49.048;8.468;2023-08-08T06:53:30;2.27;;;1.60;;
10537;SDS011;5317;49.048;8.468;2023-08-08T06:55:57;3.03;;;1.70;;
10537;SDS011;5317;49.048;8.468;2023-08-08T06:58:24;2.67;;;1.77;;
10537;SDS011;5317;49.048;8.468;2023-08-08T07:00:50;2.80;;;1.53;;
10537;SDS011;5317;49.048;8.468;2023-08-08T07:03:17;4.10;;;1.57;;
10537;SDS011;5317;49.048;8.468;2023-08-08T07:05:44;2.43;;;1.77;;
10537;SDS011;5317;49.048;8.468;2023-08-08T07:08:14;7.20;;;1.83;;
10537;SDS011;5317;49.048;8.468;2023-08-08T07:10:40;4.30;;;1.70;;
10537;SDS011;5317;49.048;8.468;2023-08-08T07:13:07;4.37;;;1.80;;
10537;SDS011;5317;49.048;8.468;2023-08-08T07:15:34;1.73;;;1.63;;
10537;SDS011;5317;49.048;8.468;2023-08-08T07:18:02;3.23;;;2.00;;
10537;SDS011;5317;49.048;8.468;2023-08-08T07:20:29;3.40;;;1.70;;
10537;SDS011;5317;49.048;8.468;2023-08-08T07:22:56;2.00;;;1.30;;
10537;SDS011;5317;49.048;8.468;2023-08-08T07:25:26;2.67;;;1.57;;
10537;SDS011;5317;49.048;8.468;2023-08-08T07:27:53;2.47;;;1.60;;
10537;SDS011;5317;49.048;8.468;2023-08-08T07:30:19;2.07;;;1.73;;
10537;SDS011;5317;49.048;8.468;2023-08-08T07:32:46;2.10;;;1.53;;
10537;SDS011;5317;49.048;8.468;2023-08-08T07:35:13;2.93;;;1.63;;
10537;SDS011;5317;49.048;8.468;2023-08-08T07:37:40;3.93;;;1.57;;
10537;SDS011;5317;49.048;8.468;2023-08-08T07:40:17;2.17;;;1.60;;
10537;SDS011;5317;49.048;8.468;2023-08-08T07:42:47;1.47;;;1.33;;
10537;SDS011;5317;49.048;8.468;2023-08-08T07:45:15;2.50;;;1.83;;
10537;SDS011;5317;49.048;8.468;2023-08-08T07:47:42;2.43;;;1.60;;
10537;SDS011;5317;49.048;8.468;2023-08-08T07:50:09;2.37;;;1.63;;
10537;SDS011;5317;49.048;8.468;2023-08-08T07:52:36;5.20;;;1.90;;
10537;SDS011;5317;49.048;8.468;2023-08-08T07:55:03;2.50;;;1.67;;
10537;SDS011;5317;49.048;8.468;2023-08-08T07:57:31;2.97;;;1.43;;
10537;SDS011;5317;49.048;8.468;2023-08-08T08:00:01;2.03;;;1.40;;
10537;SDS011;5317;49.048;8.468;2023-08-08T08:02:34;3.07;;;1.80;;
10537;SDS011;5317;49.048;8.468;2023-08-08T08:05:01;3.23;;;1.70;;
10537;SDS011;5317;49.048;8.468;2023-08-08T08:07:30;3.50;;;1.70;;
10537;SDS011;5317;49.048;8.468;2023-08-08T08:09:57;2.50;;;1.57;;
10537;SDS011;5317;49.048;8.468;2023-08-08T08:12:24;4.03;;;1.70;;
10537;SDS011;5317;49.048;8.468;2023-08-08T08:14:51;1.70;;;1.30;;
10537;SDS011;5317;49.048;8.468;2023-08-08T08:17:19;1.93;;;1.50;;
10537;SDS011;5317;49.048;8.468;2023-08-08T08:19:46;1.97;;;1.37;;
10537;SDS011;5317;49.048;8.468;2023-08-08T08:22:13;1.43;;;1.30;;
10537;SDS011;5317;49.048;8.468;2023-08-08T08:24:39;2.80;;;1.50;;
10537;SDS011;5317;49.048;8.468;2023-08-08T08:27:06;4.10;;;1.20;;
10537;SDS011;5317;49.048;8.468;2023-08-08T08:29:33;3.73;;;1.73;;
10537;SDS011;5317;49.048;8.468;2023-08-08T08:32:00;3.10;;;1.97;;
10537;SDS011;5317;49.048;8.468;2023-08-08T08:34:28;2.40;;;1.50;;
10537;SDS011;5317;49.048;8.468;2023-08-08T08:36:55;2.00;;;1.50;;
10537;SDS011;5317;49.048;8.468;2023-08-08T08:39:22;3.20;;;1.50;;
10537;SDS011;5317;49.048;8.468;2023-08-08T08:41:49;1.70;;;1.60;;
10537;SDS011;5317;49.048;8.468;2023-08-08T08:44:20;2.33;;;1.60;;
10537;SDS011;5317;49.048;8.468;2023-08-08T08:46:48;2.50;;;1.63;;
10537;SDS011;5317;49.048;8.468;2023-08-08T08:49:17;1.73;;;1.63;;
10537;SDS011;5317;49.048;8.468;2023-08-08T08:51:47;2.30;;;1.70;;
10537;SDS011;5317;49.048;8.468;2023-08-08T08:54:14;2.53;;;1.70;;
10537;SDS011;5317;49.048;8.468;2023-08-08T08:56:41;3.60;;;1.80;;
10537;SDS011;5317;49.048;8.468;2023-08-08T08:59:08;4.03;;;1.90;;
10537;SDS011;5317;49.048;8.468;2023-08-08T09:01:35;1.83;;;1.67;;
10537;SDS011;5317;49.048;8.468;2023-08-08T09:04:03;2.93;;;1.80;;
10537;SDS011;5317;49.048;8.468;2023-08-08T09:06:31;4.23;;;1.53;;
10537;SDS011;5317;49.048;8.468;2023-08-08T09:09:00;2.37;;;1.50;;
10537;SDS011;5317;49.048;8.468;2023-08-08T09:11:27;2.17;;;1.60;;
10537;SDS011;5317;49.048;8.468;2023-08-08T09:13:54;2.40;;;1.97;;
10537;SDS011;5317;49.048;8.468;2023-08-08T09:16:21;2.33;;;1.60;;
10537;SDS011;5317;49.048;8.468;2023-08-08T09:18:48;2.00;;;1.83;;
10537;SDS011;5317;49.048;8.468;2023-08-08T09:21:17;2.93;;;2.03;;
10537;SDS011;5317;49.048;8.468;2023-08-08T09:23:44;1.70;;;1.60;;
10537;SDS011;5317;49.048;8.468;2023-08-08T09:26:14;1.57;;;1.47;;
10537;SDS011;5317;49.048;8.468;2023-08-08T09:28:42;2.10;;;1.60;;
10537;SDS011;5317;49.048;8.468;2023-08-08T09:31:09;1.37;;;1.27;;
10537;SDS011;5317;49.048;8.468;2023-08-08T09:33:38;2.40;;;1.70;;
10537;SDS011;5317;49.048;8.468;2023-08-08T09:36:05;2.63;;;1.53;;
10537;SDS011;5317;49.048;8.468;2023-08-08T09:38:32;2.20;;;1.57;;
10537;SDS011;5317;49.048;8.468;2023-08-08T09:41:00;2.17;;;1.70;;
10537;SDS011;5317;49.048;8.468;2023-08-08T09:43:28;4.40;;;1.80;;
10537;SDS011;5317;49.048;8.468;2023-08-08T09:45:56;2.70;;;1.77;;
10537;SDS011;5317;49.048;8.468;2023-08-08T09:48:23;3.23;;;1.80;;
10537;SDS011;5317;49.048;8.468;2023-08-08T09:50:55;5.20;;;1.73;;
10537;SDS011;5317;49.048;8.468;2023-08-08T09:53:24;4.20;;;1.63;;
10537;SDS011;5317;49.048;8.468;2023-08-08T09:55:52;5.03;;;1.60;;
10537;SDS011;5317;49.048;8.468;2023-08-08T09:58:21;2.63;;;1.80;;
10537;SDS011;5317;49.048;8.468;2023-08-08T10:00:50;2.20;;;1.67;;
10537;SDS011;5317;49.048;8.468;2023-08-08T10:03:17;5.30;;;1.93;;
10537;SDS011;5317;49.048;8.468;2023-08-08T10:05:44;2.47;;;1.57;;
10537;SDS011;5317;49.048;8.468;2023-08-08T10:08:12;2.13;;;1.50;;
10537;SDS011;5317;49.048;8.468;2023-08-08T10:10:42;3.40;;;1.57;;
10537;SDS011;5317;49.048;8.468;2023-08-08T10:13:10;3.10;;;1.27;;
10537;SDS011;5317;49.048;8.468;2023-08-08T10:15:45;1.33;;;1.20;;
10537;SDS011;5317;49.048;8.468;2023-08-08T10:18:13;2.60;;;1.83;;
10537;SDS011;5317;49.048;8.468;2023-08-08T10:20:42;3.17;;;1.60;;
10537;SDS011;5317;49.048;8.468;2023-08-08T10:23:09;2.80;;;1.70;;
10537;SDS011;5317;49.048;8.468;2023-08-08T10:25:36;1.40;;;1.30;;
10537;SDS011;5317;49.048;8.468;2023-08-08T10:28:03;2.57;;;1.60;;
10537;SDS011;5317;49.048;8.468;2023-08-08T10:30:41;2.00;;;1.50;;
10537;SDS011;5317;49.048;8.468;2023-08-08T10:33:16;2.30;;;1.60;;
10537;SDS011;5317;49.048;8.468;2023-08-08T10:35:50;1.60;;;1.40;;
10537;SDS011;5317;49.048;8.468;2023-08-08T10:38:20;1.30;;;1.20;;
10537;SDS011;5317;49.048;8.468;2023-08-08T10:40:48;1.60;;;1.30;;
10537;SDS011;5317;49.048;8.468;2023-08-08T10:43:24;1.77;;;1.10;;
10537;SDS011;5317;49.048;8.468;2023-08-08T10:45:52;2.50;;;1.33;;
10537;SDS011;5317;49.048;8.468;2023-08-08T10:48:24;1.83;;;1.00;;
10537;SDS011;5317;49.048;8.468;2023-08-08T10:50:53;1.53;;;1.33;;
10537;SDS011;5317;49.048;8.468;2023-08-08T10:53:22;2.93;;;1.20;;
10537;SDS011;5317;49.048;8.468;2023-08-08T10:55:56;0.93;;;0.90;;
10537;SDS011;5317;49.048;8.468;2023-08-08T10:58:34;2.10;;;1.07;;
10537;SDS011;5317;49.048;8.468;2023-08-08T11:01:01;2.03;;;1.20;;
10537;SDS011;5317;49.048;8.468;2023-08-08T11:03:31;2.23;;;1.20;;
10537;SDS011;5317;49.048;8.468;2023-08-08T11:05:59;1.70;;;1.17;;
10537;SDS011;5317;49.048;8.468;2023-08-08T11:08:28;1.33;;;1.10;;
10537;SDS011;5317;49.048;8.468;2023-08-08T11:10:57;1.17;;;1.07;;
10537;SDS011;5317;49.048;8.468;2023-08-08T11:13:24;1.57;;;1.20;;
10537;SDS011;5317;49.048;8.468;2023-08-08T11:15:52;1.43;;;1.23;;
10537;SDS011;5317;49.048;8.468;2023-08-08T11:18:19;1.40;;;1.30;;
10537;SDS011;5317;49.048;8.468;2023-08-08T11:20:48;2.17;;;1.70;;
10537;SDS011;5317;49.048;8.468;2023-08-08T11:23:15;1.00;;;1.00;;
10537;SDS011;5317;49.048;8.468;2023-08-08T11:25:43;1.33;;;1.23;;
10537;SDS011;5317;49.048;8.468;2023-08-08T11:28:11;1.70;;;1.60;;
10537;SDS011;5317;49.048;8.468;2023-08-08T11:30:39;1.83;;;1.20;;
10537;SDS011;5317;49.048;8.468;2023-08-08T11:33:08;1.27;;;1.17;;
10537;SDS011;5317;49.048;8.468;2023-08-08T11:35:35;1.83;;;1.40;;
10537;SDS011;5317;49.048;8.468;2023-08-08T11:38:04;1.93;;;1.30;;
10537;SDS011;5317;49.048;8.468;2023-08-08T11:40:31;1.50;;;1.27;;
10537;SDS011;5317;49.048;8.468;2023-08-08T11:42:59;1.27;;;1.17;;
10537;SDS011;5317;49.048;8.468;2023-08-08T11:45:26;1.40;;;1.13;;
10537;SDS011;5317;49.048;8.468;2023-08-08T11:47:54;1.87;;;1.30;;
10537;SDS011;5317;49.048;8.468;2023-08-08T11:50:22;1.87;;;1.00;;
10537;SDS011;5317;49.048;8.468;2023-08-08T11:52:50;1.30;;;1.13;;
10537;SDS011;5317;49.048;8.468;2023-08-08T11:55:20;2.37;;;1.23;;
10537;SDS011;5317;49.048;8.468;2023-08-08T11:57:49;2.50;;;1.10;;
10537;SDS011;5317;49.048;8.468;2023-08-08T12:00:18;2.03;;;1.43;;
10537;SDS011;5317;49.048;8.468;2023-08-08T12:02:45;2.33;;;1.23;;
10537;SDS011;5317;49.048;8.468;2023-08-08T12:05:12;1.90;;;1.30;;
10537;SDS011;5317;49.048;8.468;2023-08-08T12:07:42;1.53;;;1.30;;
10537;SDS011;5317;49.048;8.468;2023-08-08T12:10:13;2.33;;;1.17;;
10537;SDS011;5317;49.048;8.468;2023-08-08T12:12:44;1.40;;;1.30;;
10537;SDS011;5317;49.048;8.468;2023-08-08T12:15:11;1.20;;;1.10;;
10537;SDS011;5317;49.048;8.468;2023-08-08T12:17:37;1.57;;;0.90;;
10537;SDS011;5317;49.048;8.468;2023-08-08T12:20:05;1.93;;;1.20;;
10537;SDS011;5317;49.048;8.468;2023-08-08T12:22:33;2.13;;;1.30;;
10537;SDS011;5317;49.048;8.468;2023-08-08T12:25:00;1.87;;;1.47;;
10537;SDS011;5317;49.048;8.468;2023-08-08T12:27:28;1.63;;;1.20;;
10537;SDS011;5317;49.048;8.468;2023-08-08T12:29:57;1.20;;;1.10;;
10537;SDS011;5317;49.048;8.468;2023-08-08T12:32:25;1.20;;;1.10;;
10537;SDS011;5317;49.048;8.468;2023-08-08T12:34:53;2.97;;;1.50;;
10537;SDS011;5317;49.048;8.468;2023-08-08T12:37:19;1.30;;;1.20;;
10537;SDS011;5317;49.048;8.468;2023-08-08T12:39:46;4.53;;;1.40;;
10537;SDS011;5317;49.048;8.468;2023-08-08T12:42:13;1.20;;;1.10;;
10537;SDS011;5317;49.048;8.468;2023-08-08T12:44:40;2.10;;;1.60;;
10537;SDS011;5317;49.048;8.468;2023-08-08T12:47:08;1.80;;;1.13;;
10537;SDS011;5317;49.048;8.468;2023-08-08T12:49:35;1.40;;;1.10;;
10537;SDS011;5317;49.048;8.468;2023-08-08T12:52:03;1.40;;;1.30;;
10537;SDS011;5317;49.048;8.468;2023-08-08T12:54:30;1.33;;;1.10;;
10537;SDS011;5317;49.048;8.468;2023-08-08T12:56:57;2.20;;;1.23;;
10537;SDS011;5317;49.048;8.468;2023-08-08T12:59:23;1.87;;;1.27;;
10537;SDS011;5317;49.048;8.468;2023-08-08T13:01:50;1.23;;;1.00;;
10537;SDS011;5317;49.048;8.468;2023-08-08T13:04:18;1.40;;;1.30;;
10537;SDS011;5317;49.048;8.468;2023-08-08T13:06:45;5.30;;;2.00;;
10537;SDS011;5317;49.048;8.468;2023-08-08T13:09:13;2.23;;;1.57;;
10537;SDS011;5317;49.048;8.468;2023-08-08T13:11:41;1.00;;;1.00;;
10537;SDS011;5317;49.048;8.468;2023-08-08T13:14:08;2.27;;;1.47;;
10537;SDS011;5317;49.048;8.468;2023-08-08T13:16:34;2.03;;;1.40;;
10537;SDS011;5317;49.048;8.468;2023-08-08T13:19:01;1.80;;;1.37;;
10537;SDS011;5317;49.048;8.468;2023-08-08T13:21:30;1.70;;;1.60;;
10537;SDS011;5317;49.048;8.468;2023-08-08T13:23:57;1.50;;;1.37;;
10537;SDS011;5317;49.048;8.468;2023-08-08T13:26:24;1.57;;;1.10;;
10537;SDS011;5317;49.048;8.468;2023-08-08T13:28:51;3.20;;;1.40;;
10537;SDS011;5317;49.048;8.468;2023-08-08T13:31:18;1.27;;;0.97;;
10537;SDS011;5317;49.048;8.468;2023-08-08T13:33:44;1.67;;;1.10;;
10537;SDS011;5317;49.048;8.468;2023-08-08T13:36:11;3.10;;;1.50;;
10537;SDS011;5317;49.048;8.468;2023-08-08T13:38:39;2.37;;;1.20;;
10537;SDS011;5317;49.048;8.468;2023-08-08T13:41:06;1.60;;;1.37;;
10537;SDS011;5317;49.048;8.468;2023-08-08T13:43:33;1.67;;;1.27;;
10537;SDS011;5317;49.048;8.468;2023-08-08T13:46:00;4.00;;;1.40;;
10537;SDS011;5317;49.048;8.468;2023-08-08T13:48:29;2.77;;;1.40;;
10537;SDS011;5317;49.048;8.468;2023-08-08T13:50:55;1.70;;;1.30;;
10537;SDS011;5317;49.048;8.468;2023-08-08T13:53:22;1.33;;;1.20;;
10537;SDS011;5317;49.048;8.468;2023-08-08T13:55:50;1.10;;;0.90;;
10537;SDS011;5317;49.048;8.468;2023-08-08T13:58:17;1.60;;;1.23;;
10537;SDS011;5317;49.048;8.468;2023-08-08T14:00:47;1.20;;;1.10;;
10537;SDS011;5317;49.048;8.468;2023-08-08T14:03:13;1.30;;;1.20;;
10537;SDS011;5317;49.048;8.468;2023-08-08T14:05:40;1.30;;;1.20;;
10537;SDS011;5317;49.048;8.468;2023-08-08T14:08:08;1.70;;;1.13;;
10537;SDS011;5317;49.048;8.468;2023-08-08T14:10:34;1.60;;;1.33;;
10537;SDS011;5317;49.048;8.468;2023-08-08T14:13:03;3.40;;;1.20;;
10537;SDS011;5317;49.048;8.468;2023-08-08T14:15:30;2.77;;;0.93;;
10537;SDS011;5317;49.048;8.468;2023-08-08T14:17:58;1.40;;;0.90;;
10537;SDS011;5317;49.048;8.468;2023-08-08T14:20:25;1.40;;;1.10;;
10537;SDS011;5317;49.048;8.468;2023-08-08T14:22:52;1.80;;;1.03;;
10537;SDS011;5317;49.048;8.468;2023-08-08T14:25:19;1.87;;;1.07;;
10537;SDS011;5317;49.048;8.468;2023-08-08T14:27:46;1.00;;;0.90;;
10537;SDS011;5317;49.048;8.468;2023-08-08T14:30:15;1.17;;;1.00;;
10537;SDS011;5317;49.048;8.468;2023-08-08T14:32:41;1.70;;;1.00;;
10537;SDS011;5317;49.048;8.468;2023-08-08T14:35:08;1.53;;;1.20;;
10537;SDS011;5317;49.048;8.468;2023-08-08T14:37:35;2.17;;;1.20;;
10537;SDS011;5317;49.048;8.468;2023-08-08T14:40:02;0.83;;;0.83;;
10537;SDS011;5317;49.048;8.468;2023-08-08T14:42:30;1.17;;;1.00;;
10537;SDS011;5317;49.048;8.468;2023-08-08T14:44:57;1.17;;;1.00;;
10537;SDS011;5317;49.048;8.468;2023-08-08T14:47:25;1.10;;;1.03;;
10537;SDS011;5317;49.048;8.468;2023-08-08T14:49:52;1.90;;;1.60;;
10537;SDS011;5317;49.048;8.468;2023-08-08T14:52:19;0.83;;;0.83;;
10537;SDS011;5317;49.048;8.468;2023-08-08T14:54:46;1.20;;;1.10;;
10537;SDS011;5317;49.048;8.468;2023-08-08T14:57:13;1.23;;;1.13;;
10537;SDS011;5317;49.048;8.468;2023-08-08T14:59:40;1.57;;;1.10;;
10537;SDS011;5317;49.048;8.468;2023-08-08T15:02:07;2.03;;;1.10;;
10537;SDS011;5317;49.048;8.468;2023-08-08T15:04:35;2.37;;;1.17;;